createdAt,value
2018-09-20T00:00:45.751Z,8.80
2018-09-20T00:03:13.242Z,8.25
2018-09-20T00:05:40.891Z,8.25
2018-09-20T00:08:08.459Z,8.50
2018-09-20T00:10:36.066Z,8.93
2018-09-20T00:13:03.627Z,8.40
2018-09-20T00:15:31.223Z,7.85
2018-09-20T00:17:58.824Z,8.13
2018-09-20T00:20:26.366Z,8.03
2018-09-20T00:22:53.966Z,7.67
2018-09-20T00:25:21.580Z,8.68
2018-09-20T00:27:49.162Z,7.78
2018-09-20T00:30:16.651Z,8.40
2018-09-20T00:32:44.199Z,7.90
2018-09-20T00:35:11.769Z,8.60
2018-09-20T00:37:39.286Z,7.03
2018-09-20T00:40:06.917Z,7.70
2018-09-20T00:42:34.410Z,8.08
2018-09-20T00:45:02.150Z,8.43
2018-09-20T00:47:29.660Z,8.20
2018-09-20T00:49:57.277Z,8.98
2018-09-20T00:52:24.753Z,8.55
2018-09-20T00:54:52.286Z,9.63
2018-09-20T00:57:19.853Z,8.93
2018-09-20T00:59:47.394Z,9.23
2018-09-20T01:02:14.922Z,9.48
2018-09-20T01:04:42.553Z,10.15
2018-09-20T01:07:10.018Z,9.53
2018-09-20T01:09:37.605Z,9.43
2018-09-20T01:12:05.200Z,8.95
2018-09-20T01:14:32.696Z,10.50
2018-09-20T01:17:00.261Z,9.95
2018-09-20T01:19:27.755Z,9.30
2018-09-20T01:21:55.449Z,8.93
2018-09-20T01:24:22.973Z,9.30
2018-09-20T01:26:50.534Z,9.68
2018-09-20T01:29:18.027Z,9.50
2018-09-20T01:31:45.522Z,10.10
2018-09-20T01:34:13.091Z,9.30
2018-09-20T01:36:40.645Z,9.08
2018-09-20T01:39:11.481Z,9.03
2018-09-20T01:41:39.362Z,9.73
2018-09-20T01:44:06.996Z,9.45
2018-09-20T01:46:34.587Z,9.25
2018-09-20T01:49:02.146Z,9.40
2018-09-20T01:51:29.657Z,9.20
2018-09-20T01:53:57.241Z,9.50
2018-09-20T01:56:24.768Z,9.10
2018-09-20T01:58:52.362Z,8.83
2018-09-20T02:01:19.911Z,10.82
2018-09-20T02:03:47.462Z,9.30
2018-09-20T02:06:15.039Z,9.95
2018-09-20T02:08:42.609Z,9.45
2018-09-20T02:11:10.100Z,9.98
2018-09-20T02:13:37.674Z,9.05
2018-09-20T02:16:05.334Z,9.65
2018-09-20T02:18:32.918Z,11.15
2018-09-20T02:21:00.410Z,9.90
2018-09-20T02:23:27.989Z,10.00
2018-09-20T02:25:55.494Z,10.43
2018-09-20T02:28:23.054Z,10.82
2018-09-20T02:30:50.527Z,9.50
2018-09-20T02:33:18.112Z,10.58
2018-09-20T02:35:45.670Z,9.63
2018-09-20T02:38:13.232Z,10.55
2018-09-20T02:41:19.033Z,11.20
2018-09-20T02:43:46.562Z,10.18
2018-09-20T02:46:14.073Z,10.88
2018-09-20T02:48:41.631Z,10.75
2018-09-20T02:51:09.160Z,9.60
2018-09-20T02:53:36.758Z,10.75
2018-09-20T02:56:04.239Z,10.55
2018-09-20T02:58:31.863Z,11.05
2018-09-20T03:00:59.369Z,10.48
2018-09-20T03:03:26.891Z,10.45
2018-09-20T03:05:54.541Z,10.78
2018-09-20T03:08:22.038Z,10.10
2018-09-20T03:10:49.637Z,11.50
2018-09-20T03:13:17.146Z,10.10
2018-09-20T03:15:44.721Z,10.53
2018-09-20T03:18:12.279Z,10.45
2018-09-20T03:20:39.862Z,11.48
2018-09-20T03:23:07.344Z,10.63
2018-09-20T03:25:35.014Z,10.70
2018-09-20T03:28:02.499Z,10.23
2018-09-20T03:30:30.205Z,10.40
2018-09-20T03:32:57.626Z,10.32
2018-09-20T03:35:25.184Z,10.93
2018-09-20T03:37:52.741Z,9.63
2018-09-20T03:40:20.266Z,10.55
2018-09-20T03:42:47.854Z,10.00
2018-09-20T03:45:15.353Z,10.60
2018-09-20T03:47:43.028Z,11.10
2018-09-20T03:50:10.546Z,11.25
2018-09-20T03:52:38.278Z,10.15
2018-09-20T03:55:06.026Z,11.12
2018-09-20T03:57:33.670Z,10.85
2018-09-20T04:00:01.332Z,10.60
2018-09-20T04:02:28.885Z,10.63
2018-09-20T04:04:56.460Z,9.58
2018-09-20T04:07:24.068Z,9.83
2018-09-20T04:09:51.628Z,10.90
2018-09-20T04:12:19.120Z,11.03
2018-09-20T04:14:46.605Z,11.20
2018-09-20T04:17:14.209Z,11.18
2018-09-20T04:19:41.759Z,10.78
2018-09-20T04:22:09.292Z,10.60
2018-09-20T04:24:36.838Z,10.50
2018-09-20T04:27:04.430Z,10.72
2018-09-20T04:29:32.008Z,11.70
2018-09-20T04:31:59.528Z,11.83
2018-09-20T04:34:27.172Z,11.53
2018-09-20T04:36:54.709Z,12.60
2018-09-20T04:39:22.323Z,11.25
2018-09-20T04:41:49.814Z,10.90
2018-09-20T04:44:17.410Z,10.45
2018-09-20T04:46:45.062Z,11.50
2018-09-20T04:49:12.650Z,11.70
2018-09-20T04:51:40.222Z,10.88
2018-09-20T04:54:07.694Z,12.03
2018-09-20T04:56:35.286Z,10.88
2018-09-20T04:59:02.866Z,11.03
2018-09-20T05:01:30.476Z,11.93
2018-09-20T05:03:58.043Z,11.22
2018-09-20T05:06:25.686Z,11.68
2018-09-20T05:08:53.281Z,12.85
2018-09-20T05:11:20.788Z,11.22
2018-09-20T05:13:48.508Z,10.65
2018-09-20T05:16:16.061Z,11.18
2018-09-20T05:18:43.667Z,12.20
2018-09-20T05:21:11.159Z,10.45
2018-09-20T05:23:38.735Z,11.22
2018-09-20T05:26:06.248Z,10.63
2018-09-20T05:28:33.714Z,10.53
2018-09-20T05:31:01.520Z,11.22
2018-09-20T05:33:29.168Z,11.75
2018-09-20T05:35:56.711Z,12.88
2018-09-20T05:38:24.195Z,11.75
2018-09-20T05:40:51.796Z,12.43
2018-09-20T05:43:19.458Z,12.35
2018-09-20T05:45:47.066Z,11.33
2018-09-20T05:48:14.667Z,11.50
2018-09-20T05:50:42.318Z,13.28
2018-09-20T05:53:09.807Z,13.05
2018-09-20T05:55:37.442Z,14.33
2018-09-20T05:58:05.107Z,13.93
2018-09-20T06:00:32.749Z,13.72
2018-09-20T06:03:00.246Z,14.20
2018-09-20T06:05:27.981Z,14.00
2018-09-20T06:07:55.490Z,13.48
2018-09-20T06:10:23.085Z,14.78
2018-09-20T06:12:50.605Z,12.43
2018-09-20T06:15:18.131Z,13.83
2018-09-20T06:17:45.714Z,13.72
2018-09-20T06:20:13.263Z,13.48
2018-09-20T06:22:40.831Z,13.35
2018-09-20T06:25:08.389Z,14.25
2018-09-20T06:27:36.042Z,15.10
2018-09-20T06:30:03.759Z,13.80
2018-09-20T06:32:31.367Z,13.30
2018-09-20T06:34:59.045Z,15.35
2018-09-20T06:37:26.566Z,13.80
2018-09-20T06:39:54.140Z,14.43
2018-09-20T06:42:21.626Z,13.78
2018-09-20T06:44:49.189Z,14.55
2018-09-20T06:47:16.704Z,15.13
2018-09-20T06:49:44.215Z,13.65
2018-09-20T06:52:11.782Z,14.28
2018-09-20T06:54:39.291Z,14.05
2018-09-20T06:57:06.874Z,14.18
2018-09-20T06:59:34.406Z,13.20
2018-09-20T07:02:02.034Z,13.32
2018-09-20T07:04:29.530Z,13.15
2018-09-20T07:06:57.105Z,12.60
2018-09-20T07:09:24.615Z,12.60
2018-09-20T07:11:52.169Z,13.03
2018-09-20T07:14:19.697Z,13.32
2018-09-20T07:16:47.253Z,14.20
2018-09-20T07:19:14.834Z,13.03
2018-09-20T07:21:42.383Z,14.20
2018-09-20T07:24:09.866Z,15.18
2018-09-20T07:26:37.442Z,14.53
2018-09-20T07:29:04.981Z,13.72
2018-09-20T07:31:32.579Z,14.10
2018-09-20T07:34:00.086Z,14.30
2018-09-20T07:36:27.785Z,13.40
2018-09-20T07:38:55.319Z,14.05
2018-09-20T07:41:22.847Z,14.65
2018-09-20T07:43:51.442Z,13.30
2018-09-20T07:46:19.046Z,14.45
2018-09-20T07:48:46.629Z,14.18
2018-09-20T07:51:14.122Z,14.45
2018-09-20T07:53:41.820Z,12.60
2018-09-20T07:56:09.290Z,12.73
2018-09-20T07:58:36.866Z,12.50
2018-09-20T08:01:04.382Z,11.65
2018-09-20T08:03:31.983Z,12.10
2018-09-20T08:05:59.602Z,12.00
2018-09-20T08:08:27.218Z,12.43
2018-09-20T08:10:54.818Z,12.65
2018-09-20T08:13:22.406Z,11.90
2018-09-20T08:15:49.937Z,12.37
2018-09-20T08:18:17.530Z,11.60
2018-09-20T08:20:45.152Z,13.30
2018-09-20T08:23:12.690Z,11.20
2018-09-20T08:25:40.285Z,11.20
2018-09-20T08:28:07.777Z,12.18
2018-09-20T08:30:35.398Z,11.10
2018-09-20T08:33:02.965Z,11.50
2018-09-20T08:35:30.599Z,11.00
2018-09-20T08:37:58.169Z,10.40
2018-09-20T08:40:25.765Z,9.87
2018-09-20T08:42:53.298Z,9.47
2018-09-20T08:45:20.899Z,10.00
2018-09-20T08:47:48.411Z,9.00
2018-09-20T08:50:16.041Z,9.63
2018-09-20T08:52:43.629Z,9.17
2018-09-20T08:55:11.116Z,9.40
2018-09-20T08:57:44.546Z,9.87
2018-09-20T09:00:12.165Z,8.90
2018-09-20T09:02:39.747Z,8.60
2018-09-20T09:05:07.383Z,7.67
2018-09-20T09:07:34.983Z,7.57
2018-09-20T09:10:02.573Z,7.70
2018-09-20T09:12:30.335Z,6.70
2018-09-20T09:14:57.864Z,7.20
2018-09-20T09:17:25.508Z,6.97
2018-09-20T09:19:53.036Z,9.10
2018-09-20T09:22:20.544Z,8.83
2018-09-20T09:24:48.167Z,7.90
2018-09-20T09:27:15.789Z,7.70
2018-09-20T09:29:43.331Z,7.90
2018-09-20T09:32:10.907Z,7.30
2018-09-20T09:34:38.477Z,8.93
2018-09-20T09:37:05.970Z,8.53
2018-09-20T09:39:33.646Z,8.40
2018-09-20T09:42:01.312Z,7.37
2018-09-20T09:44:28.823Z,8.23
2018-09-20T09:46:56.349Z,7.83
2018-09-20T09:49:23.941Z,8.13
2018-09-20T09:51:51.431Z,7.67
2018-09-20T09:54:19.099Z,9.10
2018-09-20T09:56:46.613Z,8.97
2018-09-20T09:59:14.302Z,8.40
2018-09-20T10:01:41.837Z,8.20
2018-09-20T10:04:09.405Z,8.00
2018-09-20T10:06:37.014Z,7.40
2018-09-20T10:09:07.351Z,7.80
2018-09-20T10:11:34.875Z,8.07
2018-09-20T10:14:02.646Z,8.70
2018-09-20T10:16:30.268Z,8.07
2018-09-20T10:18:57.782Z,9.43
2018-09-20T10:21:25.371Z,9.07
2018-09-20T10:23:52.955Z,8.70
2018-09-20T10:26:20.534Z,8.37
2018-09-20T10:28:48.081Z,9.53
2018-09-20T10:31:15.725Z,8.43
2018-09-20T10:33:43.241Z,7.90
2018-09-20T10:36:10.838Z,7.57
2018-09-20T10:38:38.354Z,8.27
2018-09-20T10:41:05.928Z,8.70
2018-09-20T10:43:33.551Z,7.80
2018-09-20T10:46:01.415Z,7.80
2018-09-20T10:48:28.934Z,7.60
2018-09-20T10:50:56.539Z,7.67
2018-09-20T10:53:24.130Z,6.40
2018-09-20T10:55:51.730Z,6.83
2018-09-20T10:58:19.302Z,7.70
2018-09-20T11:00:46.914Z,8.23
2018-09-20T11:03:14.526Z,7.20
2018-09-20T11:05:42.111Z,8.03
2018-09-20T11:08:09.734Z,8.40
2018-09-20T11:10:37.268Z,8.20
2018-09-20T11:13:04.800Z,7.97
2018-09-20T11:15:32.298Z,8.63
2018-09-20T11:17:59.908Z,7.67
2018-09-20T11:20:27.418Z,7.00
2018-09-20T11:22:55.082Z,7.00
2018-09-20T11:25:22.536Z,6.70
2018-09-20T11:27:50.097Z,7.00
2018-09-20T11:30:17.610Z,6.57
2018-09-20T11:32:45.185Z,6.80
2018-09-20T11:35:12.695Z,6.53
2018-09-20T11:37:40.152Z,6.70
2018-09-20T11:40:07.673Z,6.57
2018-09-20T11:42:35.186Z,6.67
2018-09-20T11:45:02.919Z,7.47
2018-09-20T11:47:30.449Z,6.20
2018-09-20T11:49:57.865Z,6.50
2018-09-20T11:52:25.381Z,7.10
2018-09-20T11:54:52.811Z,7.10
2018-09-20T11:57:20.363Z,6.13
2018-09-20T11:59:48.021Z,7.17
2018-09-20T12:02:15.533Z,7.27
2018-09-20T12:04:43.171Z,6.53
2018-09-20T12:07:10.757Z,6.70
2018-09-20T12:09:38.360Z,6.40
2018-09-20T12:12:06.000Z,6.30
2018-09-20T12:14:33.599Z,5.87
2018-09-20T12:17:01.344Z,6.40
2018-09-20T12:19:28.937Z,7.17
2018-09-20T12:21:56.508Z,6.07
2018-09-20T12:24:24.163Z,6.70
2018-09-20T12:26:51.681Z,7.23
2018-09-20T12:29:19.306Z,6.37
2018-09-20T12:31:46.840Z,7.30
2018-09-20T12:34:14.449Z,6.70
2018-09-20T12:36:41.989Z,7.03
2018-09-20T12:39:11.866Z,6.73
2018-09-20T12:41:39.926Z,6.50
2018-09-20T12:44:07.416Z,6.17
2018-09-20T12:46:35.011Z,6.80
2018-09-20T12:49:02.641Z,6.63
2018-09-20T12:51:30.233Z,7.20
2018-09-20T12:53:57.734Z,6.40
2018-09-20T12:56:25.460Z,7.13
2018-09-20T12:58:52.986Z,7.10
2018-09-20T13:01:21.592Z,6.93
2018-09-20T13:03:49.716Z,6.87
2018-09-20T13:06:17.649Z,6.80
2018-09-20T13:08:45.219Z,6.50
2018-09-20T13:11:12.820Z,7.07
2018-09-20T13:13:40.889Z,6.60
2018-09-20T13:16:08.586Z,6.37
2018-09-20T13:18:36.154Z,6.47
2018-09-20T13:21:03.789Z,6.00
2018-09-20T13:23:31.425Z,5.87
2018-09-20T13:25:58.986Z,6.50
2018-09-20T13:28:26.662Z,6.50
2018-09-20T13:30:54.223Z,7.50
2018-09-20T13:33:21.932Z,6.50
2018-09-20T13:35:49.526Z,6.20
2018-09-20T13:38:18.144Z,6.50
2018-09-20T13:40:45.748Z,6.40
2018-09-20T13:43:13.315Z,6.30
2018-09-20T13:45:41.089Z,5.97
2018-09-20T13:48:08.699Z,5.77
2018-09-20T13:50:36.345Z,6.47
2018-09-20T13:53:03.965Z,6.80
2018-09-20T13:55:31.608Z,5.67
2018-09-20T13:57:59.194Z,5.53
2018-09-20T14:00:27.034Z,5.80
2018-09-20T14:02:54.715Z,5.60
2018-09-20T14:05:22.650Z,6.00
2018-09-20T14:07:50.321Z,5.87
2018-09-20T14:10:17.976Z,5.83
2018-09-20T14:12:45.562Z,5.40
2018-09-20T14:15:13.164Z,5.53
2018-09-20T14:17:40.789Z,5.80
2018-09-20T14:20:08.461Z,5.67
2018-09-20T14:22:36.184Z,5.43
2018-09-20T14:25:03.833Z,4.93
2018-09-20T14:27:31.399Z,5.97
2018-09-20T14:29:59.019Z,4.33
2018-09-20T14:32:26.536Z,5.07
2018-09-20T14:34:54.256Z,5.00
2018-09-20T14:37:21.817Z,5.13
2018-09-20T14:39:49.417Z,4.90
2018-09-20T14:42:17.026Z,5.00
2018-09-20T14:44:44.557Z,5.17
2018-09-20T14:47:12.147Z,4.87
2018-09-20T14:49:39.674Z,4.90
2018-09-20T14:52:07.325Z,4.90
2018-09-20T14:54:34.839Z,4.63
2018-09-20T14:57:02.981Z,4.80
2018-09-20T14:59:30.499Z,5.00
2018-09-20T15:01:58.173Z,5.20
2018-09-20T15:04:25.802Z,4.57
2018-09-20T15:06:53.454Z,5.60
2018-09-20T15:09:20.921Z,4.80
2018-09-20T15:11:48.510Z,4.33
2018-09-20T15:14:16.051Z,4.77
2018-09-20T15:16:43.726Z,4.67
2018-09-20T15:19:11.528Z,4.83
2018-09-20T15:21:39.203Z,4.73
2018-09-20T15:24:06.962Z,5.20
2018-09-20T15:26:34.499Z,4.97
2018-09-20T15:29:02.241Z,4.63
2018-09-20T15:31:29.803Z,5.00
2018-09-20T15:33:57.490Z,5.37
2018-09-20T15:36:25.251Z,4.53
2018-09-20T15:38:52.788Z,5.33
2018-09-20T15:41:20.520Z,4.93
2018-09-20T15:43:48.121Z,5.20
2018-09-20T15:46:15.794Z,4.67
2018-09-20T15:48:43.429Z,5.10
2018-09-20T15:51:11.143Z,5.20
2018-09-20T15:53:38.806Z,4.90
2018-09-20T15:56:06.508Z,4.73
2018-09-20T15:58:34.154Z,4.93
2018-09-20T16:01:02.134Z,4.90
2018-09-20T16:03:29.685Z,5.20
2018-09-20T16:05:57.552Z,5.60
2018-09-20T16:08:25.117Z,6.07
2018-09-20T16:10:52.790Z,5.60
2018-09-20T16:13:20.380Z,5.67
2018-09-20T16:15:48.389Z,6.60
2018-09-20T16:18:16.003Z,6.17
2018-09-20T16:20:43.682Z,6.17
2018-09-20T16:23:11.330Z,5.63
2018-09-20T16:25:39.028Z,5.27
2018-09-20T16:28:29.947Z,5.83
2018-09-20T16:31:10.745Z,5.60
2018-09-20T16:33:46.639Z,6.07
2018-09-20T16:37:25.530Z,5.60
2018-09-20T16:39:54.740Z,5.00
2018-09-20T16:42:23.625Z,5.40
2018-09-20T16:44:51.255Z,6.10
2018-09-20T16:47:18.939Z,5.47
2018-09-20T16:49:46.470Z,5.47
2018-09-20T16:52:14.057Z,5.67
2018-09-20T16:54:41.630Z,5.40
2018-09-20T16:57:09.281Z,5.43
2018-09-20T16:59:36.903Z,5.43
2018-09-20T17:02:04.744Z,5.93
2018-09-20T17:04:32.455Z,5.60
2018-09-20T17:07:00.214Z,5.33
2018-09-20T17:09:27.811Z,5.23
2018-09-20T17:11:55.483Z,6.30
2018-09-20T17:14:23.232Z,5.30
2018-09-20T17:16:50.871Z,5.40
2018-09-20T17:19:18.607Z,5.73
2018-09-20T17:21:46.223Z,5.50
2018-09-20T17:24:13.889Z,5.83
2018-09-20T17:26:41.513Z,5.47
2018-09-20T17:29:09.179Z,5.57
2018-09-20T17:31:41.067Z,6.17
2018-09-20T17:34:22.887Z,6.07
2018-09-20T17:36:58.776Z,5.70
2018-09-20T17:39:39.738Z,5.50
2018-09-20T17:42:11.369Z,6.27
2018-09-20T17:44:47.558Z,6.03
2018-09-20T17:47:18.150Z,5.80
2018-09-20T17:49:51.904Z,7.77
2018-09-20T17:52:38.479Z,6.97
2018-09-20T17:55:06.657Z,8.33
2018-09-20T17:57:35.335Z,7.10
2018-09-20T18:00:03.083Z,7.70
2018-09-20T18:02:30.671Z,7.93
2018-09-20T18:04:58.353Z,11.10
2018-09-20T18:07:25.936Z,10.80
2018-09-20T18:09:53.565Z,10.83
2018-09-20T18:12:21.099Z,9.30
2018-09-20T18:14:48.726Z,8.60
2018-09-20T18:17:16.325Z,8.53
2018-09-20T18:19:43.861Z,7.30
2018-09-20T18:22:11.545Z,7.30
2018-09-20T18:24:39.246Z,7.40
2018-09-20T18:27:06.981Z,7.40
2018-09-20T18:29:34.630Z,6.60
2018-09-20T18:32:02.290Z,6.67
2018-09-20T18:34:29.829Z,6.83
2018-09-20T18:36:57.462Z,6.30
2018-09-20T18:39:25.021Z,6.50
2018-09-20T18:41:52.636Z,6.63
2018-09-20T18:44:20.238Z,5.73
2018-09-20T18:46:47.930Z,7.87
2018-09-20T18:49:15.462Z,7.07
2018-09-20T18:51:43.153Z,6.63
2018-09-20T18:54:10.704Z,7.00
2018-09-20T18:56:38.257Z,6.70
2018-09-20T18:59:05.938Z,6.60
2018-09-20T19:01:33.566Z,7.07
2018-09-20T19:04:01.514Z,7.13
2018-09-20T19:06:29.128Z,7.17
2018-09-20T19:08:56.782Z,6.70
2018-09-20T19:11:24.338Z,6.97
2018-09-20T19:13:51.969Z,6.33
2018-09-20T19:16:19.528Z,6.47
2018-09-20T19:18:47.160Z,6.73
2018-09-20T19:21:14.841Z,7.20
2018-09-20T19:23:42.344Z,5.87
2018-09-20T19:26:09.961Z,6.30
2018-09-20T19:28:37.500Z,6.60
2018-09-20T19:31:05.289Z,6.50
2018-09-20T19:33:32.855Z,5.97
2018-09-20T19:36:00.410Z,5.40
2018-09-20T19:38:28.068Z,6.70
2018-09-20T19:40:55.629Z,6.27
2018-09-20T19:43:23.242Z,5.83
2018-09-20T19:45:50.928Z,6.20
2018-09-20T19:48:18.592Z,6.30
2018-09-20T19:50:46.226Z,5.70
2018-09-20T19:53:13.814Z,6.73
2018-09-20T19:55:41.362Z,5.80
2018-09-20T19:58:08.964Z,5.80
2018-09-20T20:00:36.620Z,5.93
2018-09-20T20:03:04.184Z,6.07
2018-09-20T20:05:31.836Z,6.23
2018-09-20T20:07:59.533Z,6.00
2018-09-20T20:10:27.091Z,5.43
2018-09-20T20:12:54.745Z,5.77
2018-09-20T20:15:22.286Z,6.20
2018-09-20T20:17:49.974Z,6.90
2018-09-20T20:20:17.566Z,6.58
2018-09-20T20:22:45.186Z,6.07
2018-09-20T20:25:12.734Z,6.80
2018-09-20T20:27:40.303Z,6.10
2018-09-20T20:30:08.011Z,6.33
2018-09-20T20:32:35.628Z,6.45
2018-09-20T20:35:03.243Z,6.60
2018-09-20T20:37:30.774Z,6.73
2018-09-20T20:39:58.440Z,6.43
2018-09-20T20:42:26.017Z,6.77
2018-09-20T20:44:53.673Z,5.73
2018-09-20T20:47:21.179Z,6.13
2018-09-20T20:49:48.793Z,6.43
2018-09-20T20:52:16.339Z,6.20
2018-09-20T20:54:43.906Z,5.85
2018-09-20T20:57:11.483Z,5.80
2018-09-20T20:59:39.079Z,6.08
2018-09-20T21:02:06.642Z,6.08
2018-09-20T21:04:34.435Z,6.67
2018-09-20T21:07:01.971Z,6.47
2018-09-20T21:09:29.562Z,6.42
2018-09-20T21:11:57.087Z,6.10
2018-09-20T21:14:24.739Z,6.03
2018-09-20T21:16:52.221Z,6.80
2018-09-20T21:19:19.794Z,6.20
2018-09-20T21:21:47.409Z,6.58
2018-09-20T21:24:15.059Z,7.20
2018-09-20T21:26:42.602Z,6.55
2018-09-20T21:29:10.202Z,7.17
2018-09-20T21:31:37.857Z,7.25
2018-09-20T21:34:05.434Z,6.45
2018-09-20T21:36:33.083Z,6.50
2018-09-20T21:39:00.746Z,6.80
2018-09-20T21:41:28.334Z,6.33
2018-09-20T21:43:55.898Z,6.60
2018-09-20T21:46:23.601Z,6.85
2018-09-20T21:48:51.073Z,6.45
2018-09-20T21:51:18.738Z,7.10
2018-09-20T21:53:46.158Z,6.80
2018-09-20T21:56:13.758Z,7.17
2018-09-20T21:58:41.340Z,7.50
2018-09-20T22:01:12.331Z,7.17
2018-09-20T22:03:39.986Z,7.45
2018-09-20T22:06:07.700Z,7.17
2018-09-20T22:08:35.258Z,8.00
2018-09-20T22:11:02.953Z,7.20
2018-09-20T22:13:30.505Z,7.60
2018-09-20T22:15:57.999Z,6.90
2018-09-20T22:18:25.594Z,6.60
2018-09-20T22:20:53.179Z,6.30
2018-09-20T22:23:20.824Z,7.47
2018-09-20T22:25:48.378Z,6.60
2018-09-20T22:28:15.923Z,6.72
2018-09-20T22:30:43.447Z,6.50
2018-09-20T22:33:11.015Z,6.85
2018-09-20T22:35:38.570Z,6.20
2018-09-20T22:38:06.215Z,6.40
2018-09-20T22:40:33.723Z,6.78
2018-09-20T22:43:01.495Z,7.17
2018-09-20T22:45:28.995Z,7.40
2018-09-20T22:47:56.591Z,7.22
2018-09-20T22:50:24.100Z,7.00
2018-09-20T22:52:51.724Z,7.28
2018-09-20T22:55:19.293Z,7.35
2018-09-20T22:57:46.825Z,7.87
2018-09-20T23:00:18.972Z,8.30
2018-09-20T23:02:46.516Z,8.20
2018-09-20T23:05:14.159Z,8.53
2018-09-20T23:07:41.638Z,7.72
2018-09-20T23:10:13.184Z,8.48
2018-09-20T23:13:20.198Z,8.45
2018-09-20T23:15:47.878Z,8.73
2018-09-20T23:18:15.401Z,8.20
2018-09-20T23:20:43.114Z,8.20
2018-09-20T23:23:10.642Z,8.40
2018-09-20T23:25:38.286Z,8.10
2018-09-20T23:28:05.801Z,8.28
2018-09-20T23:30:33.385Z,9.35
2018-09-20T23:33:00.909Z,9.35
2018-09-20T23:35:28.536Z,9.10
2018-09-20T23:37:56.038Z,9.10
2018-09-20T23:40:23.613Z,10.40
2018-09-20T23:42:51.112Z,9.50
2018-09-20T23:45:18.707Z,9.13
2018-09-20T23:47:46.192Z,10.55
2018-09-20T23:50:13.773Z,8.80
2018-09-20T23:52:41.446Z,8.85
2018-09-20T23:55:09.027Z,9.70
2018-09-20T23:57:36.563Z,7.62
